sensor_id;sensor_type;location;lat;lon;timestamp;pressure;altitude;pressure_sealevel;temperature;humidity
79347;BME280;68815;48.810;44.482;2024-01-30T00:02:03;102602;;;-4.5;93.5
79347;BME280;68815;48.810;44.482;2024-01-30T00:05:05;102592.01;;;-4.6;93.5
79347;BME280;68815;48.810;44.482;2024-01-30T00:08:08;102593.99;;;-4.5;93.2
79347;BME280;68815;48.810;44.482;2024-01-30T00:11:10;102596;;;-4.5;93.2
79347;BME280;68815;48.810;44.482;2024-01-30T00:14:12;102596;;;-4.4;93.2
79347;BME280;68815;48.810;44.482;2024-01-30T00:17:14;102594.99;;;-4.4;93.1
79347;BME280;68815;48.810;44.482;2024-01-30T00:20:16;102584;;;-4.5;93
79347;BME280;68815;48.810;44.482;2024-01-30T00:23:18;102586;;;-4.5;92.9
79347;BME280;68815;48.810;44.482;2024-01-30T00:26:21;102584;;;-4.4;92.9
79347;BME280;68815;48.810;44.482;2024-01-30T00:29:23;102581.01;;;-4.4;92.8
79347;BME280;68815;48.810;44.482;2024-01-30T00:32:25;102579;;;-4.2;92.3
79347;BME280;68815;48.810;44.482;2024-01-30T00:35:27;102578;;;-4.2;91.8
79347;BME280;68815;48.810;44.482;2024-01-30T00:38:29;102574;;;-4.2;91.1
79347;BME280;68815;48.810;44.482;2024-01-30T00:41:30;102568.99;;;-4.1;90.4
79347;BME280;68815;48.810;44.482;2024-01-30T00:44:35;102569.99;;;-4.1;90.4
79347;BME280;68815;48.810;44.482;2024-01-30T00:47:36;102567.01;;;-4.1;90.5
79347;BME280;68815;48.810;44.482;2024-01-30T00:50:38;102563;;;-4.1;90.4
79347;BME280;68815;48.810;44.482;2024-01-30T00:53:40;102555.01;;;-4.2;90.5
79347;BME280;68815;48.810;44.482;2024-01-30T00:56:42;102557.99;;;-4.2;90.6
79347;BME280;68815;48.810;44.482;2024-01-30T00:59:44;102555.01;;;-4.1;90.1
79347;BME280;68815;48.810;44.482;2024-01-30T01:02:45;102556.99;;;-4.2;89.9
79347;BME280;68815;48.810;44.482;2024-01-30T01:05:48;102556.01;;;-4.2;90.1
79347;BME280;68815;48.810;44.482;2024-01-30T01:08:50;102550;;;-4.3;90.3
79347;BME280;68815;48.810;44.482;2024-01-30T01:11:52;102547;;;-4;89.6
79347;BME280;68815;48.810;44.482;2024-01-30T01:14:54;102546;;;-3.9;88.9
79347;BME280;68815;48.810;44.482;2024-01-30T01:17:55;102543.01;;;-4;89
79347;BME280;68815;48.810;44.482;2024-01-30T01:24:44;102543.01;;;-4;89.1
79347;BME280;68815;48.810;44.482;2024-01-30T01:27:46;102531.99;;;-4;89.2
79347;BME280;68815;48.810;44.482;2024-01-30T01:30:47;102531.01;;;-4;89.4
79347;BME280;68815;48.810;44.482;2024-01-30T01:33:50;102530.01;;;-4;89.5
79347;BME280;68815;48.810;44.482;2024-01-30T01:36:52;102530.01;;;-3.9;89.6
79347;BME280;68815;48.810;44.482;2024-01-30T01:39:54;102538;;;-3.9;89.7
79347;BME280;68815;48.810;44.482;2024-01-30T01:42:56;102536;;;-3.9;89.7
79347;BME280;68815;48.810;44.482;2024-01-30T01:45:58;102532.99;;;-3.9;89.9
79347;BME280;68815;48.810;44.482;2024-01-30T01:49:02;102532.99;;;-4;90.2
79347;BME280;68815;48.810;44.482;2024-01-30T01:52:04;102542.01;;;-4;90.1
79347;BME280;68815;48.810;44.482;2024-01-30T01:55:06;102552;;;-4.1;89.7
79347;BME280;68815;48.810;44.482;2024-01-30T01:58:09;102540;;;-4;89.5
79347;BME280;68815;48.810;44.482;2024-01-30T02:01:12;102543.01;;;-4.1;90.1
79347;BME280;68815;48.810;44.482;2024-01-30T02:04:15;102540;;;-4.1;90.3
79347;BME280;68815;48.810;44.482;2024-01-30T02:07:17;102535;;;-4;89.8
79347;BME280;68815;48.810;44.482;2024-01-30T02:10:19;102538;;;-4.2;89.5
79347;BME280;68815;48.810;44.482;2024-01-30T02:13:21;102529;;;-4.1;89.1
79347;BME280;68815;48.810;44.482;2024-01-30T02:16:23;102543.01;;;-4.1;88.6
79347;BME280;68815;48.810;44.482;2024-01-30T02:19:25;102526;;;-4;88.4
79347;BME280;68815;48.810;44.482;2024-01-30T02:22:27;102525;;;-4.1;88.2
79347;BME280;68815;48.810;44.482;2024-01-30T02:25:30;102524;;;-4;88.5
79347;BME280;68815;48.810;44.482;2024-01-30T02:28:32;102528;;;-3.9;87.5
79347;BME280;68815;48.810;44.482;2024-01-30T02:31:34;102521;;;-3.8;87.4
79347;BME280;68815;48.810;44.482;2024-01-30T02:34:36;102517.01;;;-4;87.7
79347;BME280;68815;48.810;44.482;2024-01-30T02:37:38;102510;;;-4;88.1
79347;BME280;68815;48.810;44.482;2024-01-30T02:40:40;102505.01;;;-4;88.1
79347;BME280;68815;48.810;44.482;2024-01-30T02:43:42;102504;;;-4.1;88.2
79347;BME280;68815;48.810;44.482;2024-01-30T02:46:44;102491;;;-4.1;88.6
79347;BME280;68815;48.810;44.482;2024-01-30T02:49:46;102493.01;;;-4.1;88.9
79347;BME280;68815;48.810;44.482;2024-01-30T02:52:48;102482.99;;;-4;88.9
79347;BME280;68815;48.810;44.482;2024-01-30T02:55:50;102484;;;-3.9;88.9
79347;BME280;68815;48.810;44.482;2024-01-30T02:58:52;102487;;;-4;89
79347;BME280;68815;48.810;44.482;2024-01-30T03:01:53;102491;;;-3.9;89.3
79347;BME280;68815;48.810;44.482;2024-01-30T03:04:55;102493.01;;;-3.9;89.3
79347;BME280;68815;48.810;44.482;2024-01-30T03:07:57;102498;;;-3.9;89.6
79347;BME280;68815;48.810;44.482;2024-01-30T03:10:59;102502;;;-3.8;89.8
79347;BME280;68815;48.810;44.482;2024-01-30T03:14:01;102496;;;-3.8;89.4
79347;BME280;68815;48.810;44.482;2024-01-30T03:17:03;102488;;;-3.8;89.4
79347;BME280;68815;48.810;44.482;2024-01-30T03:20:06;102493.99;;;-3.7;89.4
79347;BME280;68815;48.810;44.482;2024-01-30T03:23:08;102486;;;-3.8;89.7
79347;BME280;68815;48.810;44.482;2024-01-30T03:26:12;102484;;;-3.8;90.2
79347;BME280;68815;48.810;44.482;2024-01-30T03:29:14;102485;;;-3.7;90.3
79347;BME280;68815;48.810;44.482;2024-01-30T03:32:16;102489;;;-3.6;90.1
79347;BME280;68815;48.810;44.482;2024-01-30T03:35:18;102481.01;;;-3.6;90.3
79347;BME280;68815;48.810;44.482;2024-01-30T03:38:20;102473;;;-3.6;90.6
79347;BME280;68815;48.810;44.482;2024-01-30T03:41:22;102468.01;;;-3.5;90.8
79347;BME280;68815;48.810;44.482;2024-01-30T03:44:24;102462;;;-3.4;90.8
79347;BME280;68815;48.810;44.482;2024-01-30T03:47:26;102456.01;;;-3.3;90.5
79347;BME280;68815;48.810;44.482;2024-01-30T03:50:28;102466;;;-3.4;90.7
79347;BME280;68815;48.810;44.482;2024-01-30T03:53:30;102463;;;-3.4;91
79347;BME280;68815;48.810;44.482;2024-01-30T03:56:32;102460;;;-3.3;90.8
79347;BME280;68815;48.810;44.482;2024-01-30T03:59:34;102468.99;;;-3.3;91
79347;BME280;68815;48.810;44.482;2024-01-30T04:02:35;102463;;;-3.3;91.5
79347;BME280;68815;48.810;44.482;2024-01-30T04:05:37;102456.01;;;-3.3;91.3
79347;BME280;68815;48.810;44.482;2024-01-30T04:08:40;102460;;;-3.2;91.3
79347;BME280;68815;48.810;44.482;2024-01-30T04:11:42;102461;;;-3.2;91.3
79347;BME280;68815;48.810;44.482;2024-01-30T04:14:44;102454;;;-3.1;91
79347;BME280;68815;48.810;44.482;2024-01-30T04:17:45;102443.99;;;-3.1;91
79347;BME280;68815;48.810;44.482;2024-01-30T04:20:48;102442.01;;;-3.1;91
79347;BME280;68815;48.810;44.482;2024-01-30T04:23:50;102447;;;-3.1;91.2
79347;BME280;68815;48.810;44.482;2024-01-30T04:26:52;102447;;;-3;90.9
79347;BME280;68815;48.810;44.482;2024-01-30T04:29:55;102443.99;;;-3;90.7
79347;BME280;68815;48.810;44.482;2024-01-30T04:32:57;102439;;;-2.9;90.4
79347;BME280;68815;48.810;44.482;2024-01-30T04:35:59;102443.01;;;-3.1;90.8
79347;BME280;68815;48.810;44.482;2024-01-30T04:39:01;102435;;;-3;91.1
79347;BME280;68815;48.810;44.482;2024-01-30T04:42:03;102442.01;;;-3;91.7
79347;BME280;68815;48.810;44.482;2024-01-30T04:45:06;102444.99;;;-3;91.4
79347;BME280;68815;48.810;44.482;2024-01-30T04:48:08;102448;;;-3;91.3
79347;BME280;68815;48.810;44.482;2024-01-30T04:51:09;102451;;;-2.9;91.2
79347;BME280;68815;48.810;44.482;2024-01-30T04:54:11;102448;;;-2.9;90.8
79347;BME280;68815;48.810;44.482;2024-01-30T04:57:13;102446;;;-2.8;90.5
79347;BME280;68815;48.810;44.482;2024-01-30T05:00:15;102442.01;;;-2.8;90.5
79347;BME280;68815;48.810;44.482;2024-01-30T05:03:17;102437;;;-2.8;90.4
79347;BME280;68815;48.810;44.482;2024-01-30T05:06:24;102442.01;;;-2.7;90.4
79347;BME280;68815;48.810;44.482;2024-01-30T05:09:27;102447;;;-2.7;90
79347;BME280;68815;48.810;44.482;2024-01-30T05:12:28;102448;;;-2.7;89.9
79347;BME280;68815;48.810;44.482;2024-01-30T05:15:30;102444.99;;;-2.6;90.1
79347;BME280;68815;48.810;44.482;2024-01-30T05:18:32;102441;;;-2.6;89.8
79347;BME280;68815;48.810;44.482;2024-01-30T05:21:34;102436;;;-2.6;90
79347;BME280;68815;48.810;44.482;2024-01-30T05:24:36;102428;;;-2.7;89.8
79347;BME280;68815;48.810;44.482;2024-01-30T05:27:38;102427;;;-2.7;89.8
79347;BME280;68815;48.810;44.482;2024-01-30T05:30:40;102421;;;-2.6;89.7
79347;BME280;68815;48.810;44.482;2024-01-30T05:33:42;102423;;;-2.6;89.2
79347;BME280;68815;48.810;44.482;2024-01-30T05:36:44;102416;;;-2.6;89.7
79347;BME280;68815;48.810;44.482;2024-01-30T05:39:47;102404;;;-2.5;89
79347;BME280;68815;48.810;44.482;2024-01-30T05:42:49;102409;;;-2.5;89.1
79347;BME280;68815;48.810;44.482;2024-01-30T05:45:51;102400;;;-2.4;88.8
79347;BME280;68815;48.810;44.482;2024-01-30T05:48:53;102400;;;-2.2;88.1
79347;BME280;68815;48.810;44.482;2024-01-30T05:51:55;102391;;;-2.2;87.6
79347;BME280;68815;48.810;44.482;2024-01-30T05:54:57;102396;;;-2.2;87
79347;BME280;68815;48.810;44.482;2024-01-30T05:57:59;102392;;;-2;86.8
79347;BME280;68815;48.810;44.482;2024-01-30T06:01:00;102396;;;-2;86.6
79347;BME280;68815;48.810;44.482;2024-01-30T06:04:03;102400;;;-2;86.8
79347;BME280;68815;48.810;44.482;2024-01-30T06:07:05;102398;;;-2;86.6
79347;BME280;68815;48.810;44.482;2024-01-30T06:10:08;102395;;;-2;86.2
79347;BME280;68815;48.810;44.482;2024-01-30T06:13:10;102392;;;-1.9;85.8
79347;BME280;68815;48.810;44.482;2024-01-30T06:16:12;102385;;;-1.9;85.7
79347;BME280;68815;48.810;44.482;2024-01-30T06:19:14;102386;;;-1.8;85.4
79347;BME280;68815;48.810;44.482;2024-01-30T06:22:16;102380;;;-1.7;85.2
79347;BME280;68815;48.810;44.482;2024-01-30T06:25:18;102383;;;-1.8;85.2
79347;BME280;68815;48.810;44.482;2024-01-30T06:28:20;102379;;;-1.7;85.3
79347;BME280;68815;48.810;44.482;2024-01-30T06:31:22;102379;;;-1.7;85.2
79347;BME280;68815;48.810;44.482;2024-01-30T06:34:24;102375;;;-1.8;85.3
79347;BME280;68815;48.810;44.482;2024-01-30T06:37:26;102359;;;-1.6;85.1
79347;BME280;68815;48.810;44.482;2024-01-30T06:40:27;102356;;;-1.6;84.6
79347;BME280;68815;48.810;44.482;2024-01-30T06:43:29;102359;;;-1.5;84.4
79347;BME280;68815;48.810;44.482;2024-01-30T06:46:31;102360;;;-1.4;83.8
79347;BME280;68815;48.810;44.482;2024-01-30T06:49:33;102351;;;-1.3;83.1
79347;BME280;68815;48.810;44.482;2024-01-30T06:52:35;102351;;;-1.4;83
79347;BME280;68815;48.810;44.482;2024-01-30T06:55:37;102348;;;-1.3;83.3
79347;BME280;68815;48.810;44.482;2024-01-30T06:58:39;102343;;;-1.2;83.1
79347;BME280;68815;48.810;44.482;2024-01-30T07:01:40;102333;;;-1.1;82.6
79347;BME280;68815;48.810;44.482;2024-01-30T07:04:42;102328;;;-1;82.4
79347;BME280;68815;48.810;44.482;2024-01-30T07:07:44;102328;;;-1;81.8
79347;BME280;68815;48.810;44.482;2024-01-30T07:10:47;102330;;;-0.9;81.8
79347;BME280;68815;48.810;44.482;2024-01-30T07:13:50;102330;;;-1;81.6
79347;BME280;68815;48.810;44.482;2024-01-30T07:16:52;102329;;;-1.1;82.1
79347;BME280;68815;48.810;44.482;2024-01-30T07:19:54;102336;;;-0.9;82
79347;BME280;68815;48.810;44.482;2024-01-30T07:22:56;102331;;;-0.8;81.9
79347;BME280;68815;48.810;44.482;2024-01-30T07:25:58;102329;;;-0.8;81.1
79347;BME280;68815;48.810;44.482;2024-01-30T07:28:59;102319;;;-0.9;81.6
79347;BME280;68815;48.810;44.482;2024-01-30T07:32:01;102316;;;-0.8;80.8
79347;BME280;68815;48.810;44.482;2024-01-30T07:35:04;102313;;;-0.7;80.7
79347;BME280;68815;48.810;44.482;2024-01-30T07:38:06;102313;;;-0.6;80.7
79347;BME280;68815;48.810;44.482;2024-01-30T07:41:07;102309;;;-0.5;80.3
79347;BME280;68815;48.810;44.482;2024-01-30T07:44:09;102305;;;-0.6;79.9
79347;BME280;68815;48.810;44.482;2024-01-30T07:47:11;102300;;;-0.5;80
79347;BME280;68815;48.810;44.482;2024-01-30T07:50:13;102299;;;-0.4;79.7
79347;BME280;68815;48.810;44.482;2024-01-30T07:53:15;102297;;;-0.3;79.2
79347;BME280;68815;48.810;44.482;2024-01-30T07:56:17;102290;;;-0.3;79.2
79347;BME280;68815;48.810;44.482;2024-01-30T07:59:18;102274;;;-0.3;79.1
79347;BME280;68815;48.810;44.482;2024-01-30T08:02:20;102272;;;-0.4;79.3
79347;BME280;68815;48.810;44.482;2024-01-30T08:05:22;102270;;;-0.3;79
79347;BME280;68815;48.810;44.482;2024-01-30T08:08:24;102259;;;-0.3;79.1
79347;BME280;68815;48.810;44.482;2024-01-30T08:11:26;102246;;;-0.2;79.2
79347;BME280;68815;48.810;44.482;2024-01-30T08:14:29;102249;;;-0.2;79
79347;BME280;68815;48.810;44.482;2024-01-30T08:17:30;102248;;;-0.3;79.2
79347;BME280;68815;48.810;44.482;2024-01-30T08:20:32;102236;;;-0.1;78.7
79347;BME280;68815;48.810;44.482;2024-01-30T08:23:34;102224;;;-0.3;78.6
79347;BME280;68815;48.810;44.482;2024-01-30T08:26:36;102213;;;-0.1;78.2
79347;BME280;68815;48.810;44.482;2024-01-30T08:29:38;102208;;;-0.2;78
79347;BME280;68815;48.810;44.482;2024-01-30T08:32:40;102201;;;-0.1;77.8
79347;BME280;68815;48.810;44.482;2024-01-30T08:35:41;102195;;;-0.1;77.9
79347;BME280;68815;48.810;44.482;2024-01-30T08:38:43;102191;;;-0.1;77.6
79347;BME280;68815;48.810;44.482;2024-01-30T08:41:45;102181;;;-0.2;77.5
79347;BME280;68815;48.810;44.482;2024-01-30T08:44:47;102172;;;-0.3;78.2
79347;BME280;68815;48.810;44.482;2024-01-30T08:47:49;102175;;;-0.2;78.5
79347;BME280;68815;48.810;44.482;2024-01-30T08:50:51;102171;;;0;78.5
79347;BME280;68815;48.810;44.482;2024-01-30T08:53:53;102162;;;-0.1;78.4
79347;BME280;68815;48.810;44.482;2024-01-30T08:56:54;102162;;;0.2;77.6
79347;BME280;68815;48.810;44.482;2024-01-30T08:59:56;102163;;;0.2;77.6
79347;BME280;68815;48.810;44.482;2024-01-30T09:02:58;102146;;;0.3;77.3
79347;BME280;68815;48.810;44.482;2024-01-30T09:06:00;102140;;;0.1;77.3
79347;BME280;68815;48.810;44.482;2024-01-30T09:09:02;102137;;;0.1;77.3
79347;BME280;68815;48.810;44.482;2024-01-30T09:12:04;102125;;;0;77.9
79347;BME280;68815;48.810;44.482;2024-01-30T09:15:07;102117;;;-0.1;78.2
79347;BME280;68815;48.810;44.482;2024-01-30T09:18:09;102109;;;0.2;78.4
79347;BME280;68815;48.810;44.482;2024-01-30T09:21:11;102097;;;0.3;77.7
79347;BME280;68815;48.810;44.482;2024-01-30T09:24:13;102089;;;0.3;77.1
79347;BME280;68815;48.810;44.482;2024-01-30T09:27:15;102073;;;0.1;77.1
79347;BME280;68815;48.810;44.482;2024-01-30T09:30:17;102073;;;0.1;77.9
79347;BME280;68815;48.810;44.482;2024-01-30T09:33:19;102072;;;0.3;77.7
79347;BME280;68815;48.810;44.482;2024-01-30T09:36:20;102062;;;0.3;77.7
79347;BME280;68815;48.810;44.482;2024-01-30T09:39:23;102050;;;0.3;77.5
79347;BME280;68815;48.810;44.482;2024-01-30T09:42:28;102043;;;0.6;77.2
79347;BME280;68815;48.810;44.482;2024-01-30T09:45:35;102041;;;0.6;76.8
79347;BME280;68815;48.810;44.482;2024-01-30T09:48:37;102040;;;0.5;76.8
79347;BME280;68815;48.810;44.482;2024-01-30T09:51:39;102043;;;0.3;77.5
79347;BME280;68815;48.810;44.482;2024-01-30T09:54:43;102051;;;0.3;77.8
79347;BME280;68815;48.810;44.482;2024-01-30T09:57:46;102047;;;0.2;78.2
79347;BME280;68815;48.810;44.482;2024-01-30T10:00:48;102042;;;0.2;78.8
79347;BME280;68815;48.810;44.482;2024-01-30T10:03:50;102025;;;0.1;78.4
79347;BME280;68815;48.810;44.482;2024-01-30T10:06:52;102016;;;-0.1;79.5
79347;BME280;68815;48.810;44.482;2024-01-30T10:09:54;102009;;;-0.2;78.8
79347;BME280;68815;48.810;44.482;2024-01-30T10:12:56;102008;;;0;78.9
79347;BME280;68815;48.810;44.482;2024-01-30T10:15:58;102013;;;-0.1;78.2
79347;BME280;68815;48.810;44.482;2024-01-30T10:18:59;102020;;;0;78.4
79347;BME280;68815;48.810;44.482;2024-01-30T10:22:02;102024;;;0.2;78.8
79347;BME280;68815;48.810;44.482;2024-01-30T10:25:04;102013;;;0.1;78
79347;BME280;68815;48.810;44.482;2024-01-30T10:28:06;102010;;;0.1;78.5
79347;BME280;68815;48.810;44.482;2024-01-30T10:31:08;102001;;;-0.1;78.1
79347;BME280;68815;48.810;44.482;2024-01-30T10:34:10;101993;;;-0.1;78.4
79347;BME280;68815;48.810;44.482;2024-01-30T10:37:11;101994;;;-0.2;78.7
79347;BME280;68815;48.810;44.482;2024-01-30T10:40:14;101996;;;-0.4;78.9
79347;BME280;68815;48.810;44.482;2024-01-30T10:43:17;101995;;;-0.3;79.4
79347;BME280;68815;48.810;44.482;2024-01-30T10:46:30;101987;;;-0.3;78.8
79347;BME280;68815;48.810;44.482;2024-01-30T10:49:34;101984;;;-0.2;79
79347;BME280;68815;48.810;44.482;2024-01-30T10:52:36;101982;;;0;78.7
79347;BME280;68815;48.810;44.482;2024-01-30T10:55:39;101968;;;-0.1;78.3
79347;BME280;68815;48.810;44.482;2024-01-30T10:58:41;101970;;;0.1;77.9
79347;BME280;68815;48.810;44.482;2024-01-30T11:01:43;101964;;;0;77.8
79347;BME280;68815;48.810;44.482;2024-01-30T11:04:45;101958;;;0.2;78.6
79347;BME280;68815;48.810;44.482;2024-01-30T11:07:47;101957;;;0.2;78.4
79347;BME280;68815;48.810;44.482;2024-01-30T11:10:54;101961;;;0.5;78.1
79347;BME280;68815;48.810;44.482;2024-01-30T11:14:00;101958;;;0.4;78.7
79347;BME280;68815;48.810;44.482;2024-01-30T11:17:03;101957;;;0.3;77.7
79347;BME280;68815;48.810;44.482;2024-01-30T11:20:09;101954;;;0.2;77.9
79347;BME280;68815;48.810;44.482;2024-01-30T11:23:11;101958;;;0.2;78
79347;BME280;68815;48.810;44.482;2024-01-30T11:26:13;101957;;;0.2;78.3
79347;BME280;68815;48.810;44.482;2024-01-30T11:29:16;101955;;;0.1;78.3
79347;BME280;68815;48.810;44.482;2024-01-30T11:32:22;101943;;;0.2;78.8
79347;BME280;68815;48.810;44.482;2024-01-30T11:35:25;101946;;;0.1;79.2
79347;BME280;68815;48.810;44.482;2024-01-30T11:38:28;101948;;;0.1;78.8
79347;BME280;68815;48.810;44.482;2024-01-30T11:41:30;101949;;;-0.1;79.9
79347;BME280;68815;48.810;44.482;2024-01-30T11:44:32;101944;;;-0.1;80
79347;BME280;68815;48.810;44.482;2024-01-30T11:47:35;101929;;;-0.1;80.2
79347;BME280;68815;48.810;44.482;2024-01-30T11:50:38;101941;;;-0.1;80.4
79347;BME280;68815;48.810;44.482;2024-01-30T11:53:41;101937;;;0;80.5
79347;BME280;68815;48.810;44.482;2024-01-30T11:56:43;101937;;;-0.1;80.3
79347;BME280;68815;48.810;44.482;2024-01-30T11:59:45;101937;;;-0.2;80.3
79347;BME280;68815;48.810;44.482;2024-01-30T12:02:49;101934;;;-0.2;80.2
79347;BME280;68815;48.810;44.482;2024-01-30T12:05:55;101935;;;-0.2;80.7
79347;BME280;68815;48.810;44.482;2024-01-30T12:09:00;101936;;;-0.1;80.1
79347;BME280;68815;48.810;44.482;2024-01-30T12:12:02;101927;;;0;80.4
79347;BME280;68815;48.810;44.482;2024-01-30T12:15:04;101914;;;-0.2;80
79347;BME280;68815;48.810;44.482;2024-01-30T12:18:07;101916;;;-0.3;80
79347;BME280;68815;48.810;44.482;2024-01-30T12:21:08;101928;;;-0.3;80
79347;BME280;68815;48.810;44.482;2024-01-30T12:24:10;101927;;;-0.4;80.2
79347;BME280;68815;48.810;44.482;2024-01-30T12:27:15;101932;;;-0.3;80.5
79347;BME280;68815;48.810;44.482;2024-01-30T12:30:18;101927;;;-0.3;79.9
79347;BME280;68815;48.810;44.482;2024-01-30T12:33:20;101922;;;-0.5;80.1
79347;BME280;68815;48.810;44.482;2024-01-30T12:36:22;101926;;;-0.4;80.2
79347;BME280;68815;48.810;44.482;2024-01-30T12:39:24;101925;;;-0.6;81
79347;BME280;68815;48.810;44.482;2024-01-30T12:42:26;101924;;;-0.7;81.5
79347;BME280;68815;48.810;44.482;2024-01-30T12:45:29;101918;;;-0.9;82.4
79347;BME280;68815;48.810;44.482;2024-01-30T12:48:31;101917;;;-0.8;82.4
79347;BME280;68815;48.810;44.482;2024-01-30T12:51:34;101929;;;-0.6;82
79347;BME280;68815;48.810;44.482;2024-01-30T12:54:36;101917;;;-0.6;81.7
79347;BME280;68815;48.810;44.482;2024-01-30T12:57:39;101912;;;-0.7;82
79347;BME280;68815;48.810;44.482;2024-01-30T13:00:41;101908;;;-0.9;82.5
79347;BME280;68815;48.810;44.482;2024-01-30T13:03:43;101887;;;-1;83
79347;BME280;68815;48.810;44.482;2024-01-30T13:06:45;101886;;;-1;83.4
79347;BME280;68815;48.810;44.482;2024-01-30T13:09:47;101880;;;-1;83.7
79347;BME280;68815;48.810;44.482;2024-01-30T13:12:49;101880;;;-1;83.4
79347;BME280;68815;48.810;44.482;2024-01-30T13:15:51;101888;;;-1;83
79347;BME280;68815;48.810;44.482;2024-01-30T13:18:53;101886;;;-1.1;83.2
79347;BME280;68815;48.810;44.482;2024-01-30T13:21:54;101893;;;-1.1;83.2
79347;BME280;68815;48.810;44.482;2024-01-30T13:24:56;101883;;;-1.1;83.3
79347;BME280;68815;48.810;44.482;2024-01-30T13:27:58;101881;;;-1.2;83.4
79347;BME280;68815;48.810;44.482;2024-01-30T13:31:00;101877;;;-1.3;84
79347;BME280;68815;48.810;44.482;2024-01-30T13:34:02;101869;;;-1.3;84.1
79347;BME280;68815;48.810;44.482;2024-01-30T13:37:04;101863;;;-1.4;84.2
79347;BME280;68815;48.810;44.482;2024-01-30T13:40:07;101856;;;-1.6;84.4
79347;BME280;68815;48.810;44.482;2024-01-30T13:43:09;101853;;;-1.6;84.7
79347;BME280;68815;48.810;44.482;2024-01-30T13:46:11;101864;;;-1.6;84.5
79347;BME280;68815;48.810;44.482;2024-01-30T13:49:13;101869;;;-1.7;84.8
79347;BME280;68815;48.810;44.482;2024-01-30T13:52:15;101857;;;-1.7;84.9
79347;BME280;68815;48.810;44.482;2024-01-30T13:55:17;101856;;;-1.7;84.9
79347;BME280;68815;48.810;44.482;2024-01-30T13:58:20;101851;;;-1.8;84.9
79347;BME280;68815;48.810;44.482;2024-01-30T14:01:22;101856;;;-1.8;85.1
79347;BME280;68815;48.810;44.482;2024-01-30T14:04:24;101843;;;-1.9;85.4
79347;BME280;68815;48.810;44.482;2024-01-30T14:07:25;101841;;;-1.9;85.6
79347;BME280;68815;48.810;44.482;2024-01-30T14:10:28;101841;;;-1.9;85.7
79347;BME280;68815;48.810;44.482;2024-01-30T14:13:30;101851;;;-1.9;85.4
79347;BME280;68815;48.810;44.482;2024-01-30T14:16:32;101856;;;-1.9;85.5
79347;BME280;68815;48.810;44.482;2024-01-30T14:19:33;101867;;;-2;86.1
79347;BME280;68815;48.810;44.482;2024-01-30T14:22:36;101858;;;-2.1;86.4
79347;BME280;68815;48.810;44.482;2024-01-30T14:25:38;101855;;;-2.1;87.1
79347;BME280;68815;48.810;44.482;2024-01-30T14:28:40;101859;;;-2;86.9
79347;BME280;68815;48.810;44.482;2024-01-30T14:31:42;101848;;;-1.8;86.3
79347;BME280;68815;48.810;44.482;2024-01-30T14:34:44;101850;;;-2;86.5
79347;BME280;68815;48.810;44.482;2024-01-30T14:37:45;101871;;;-1.8;86.2
79347;BME280;68815;48.810;44.482;2024-01-30T14:40:47;101858;;;-1.9;85.9
79347;BME280;68815;48.810;44.482;2024-01-30T14:43:49;101873;;;-1.9;86
79347;BME280;68815;48.810;44.482;2024-01-30T14:46:51;101874;;;-2;86.5
79347;BME280;68815;48.810;44.482;2024-01-30T14:49:53;101872;;;-2.1;86.9
79347;BME280;68815;48.810;44.482;2024-01-30T14:52:55;101875;;;-2;87.1
79347;BME280;68815;48.810;44.482;2024-01-30T14:55:57;101889;;;-1.9;86.9
79347;BME280;68815;48.810;44.482;2024-01-30T14:59:00;101893;;;-2;86.8
79347;BME280;68815;48.810;44.482;2024-01-30T15:02:01;101898;;;-1.9;86.6
79347;BME280;68815;48.810;44.482;2024-01-30T15:05:04;101900;;;-2;86.9
79347;BME280;68815;48.810;44.482;2024-01-30T15:08:07;101890;;;-2;87.1
79347;BME280;68815;48.810;44.482;2024-01-30T15:11:09;101888;;;-1.9;86.9
79347;BME280;68815;48.810;44.482;2024-01-30T15:14:12;101880;;;-2;86.7
79347;BME280;68815;48.810;44.482;2024-01-30T15:17:14;101883;;;-2;86.8
79347;BME280;68815;48.810;44.482;2024-01-30T15:20:16;101884;;;-2;86.5
79347;BME280;68815;48.810;44.482;2024-01-30T15:23:17;101883;;;-2;86.6
79347;BME280;68815;48.810;44.482;2024-01-30T15:26:19;101884;;;-2;87.1
79347;BME280;68815;48.810;44.482;2024-01-30T15:29:21;101881;;;-2.1;87
79347;BME280;68815;48.810;44.482;2024-01-30T15:32:23;101885;;;-2.1;86.8
79347;BME280;68815;48.810;44.482;2024-01-30T15:35:25;101883;;;-2.2;87
79347;BME280;68815;48.810;44.482;2024-01-30T15:38:26;101880;;;-2.1;86.7
79347;BME280;68815;48.810;44.482;2024-01-30T15:41:28;101879;;;-2.1;86.2
79347;BME280;68815;48.810;44.482;2024-01-30T15:44:30;101876;;;-2.1;86.4
79347;BME280;68815;48.810;44.482;2024-01-30T15:47:32;101866;;;-2.1;86.5
79347;BME280;68815;48.810;44.482;2024-01-30T15:50:34;101872;;;-2.1;86.4
79347;BME280;68815;48.810;44.482;2024-01-30T15:53:35;101862;;;-2.1;86.5
79347;BME280;68815;48.810;44.482;2024-01-30T15:56:37;101856;;;-2;86
79347;BME280;68815;48.810;44.482;2024-01-30T15:59:39;101859;;;-2;85.8
79347;BME280;68815;48.810;44.482;2024-01-30T16:02:42;101853;;;-2;85.8
79347;BME280;68815;48.810;44.482;2024-01-30T16:05:44;101861;;;-2.1;86
79347;BME280;68815;48.810;44.482;2024-01-30T16:08:45;101859;;;-2.1;86.5
79347;BME280;68815;48.810;44.482;2024-01-30T16:11:47;101860;;;-2.1;86.2
79347;BME280;68815;48.810;44.482;2024-01-30T16:14:51;101853;;;-2.2;86.3
79347;BME280;68815;48.810;44.482;2024-01-30T16:18:05;101853;;;-2.1;86.6
79347;BME280;68815;48.810;44.482;2024-01-30T16:21:11;101847;;;-2.2;86.7
79347;BME280;68815;48.810;44.482;2024-01-30T16:24:14;101850;;;-2.2;86.9
79347;BME280;68815;48.810;44.482;2024-01-30T16:27:24;101846;;;-2.2;86.6
79347;BME280;68815;48.810;44.482;2024-01-30T16:30:27;101853;;;-2.1;86.5
79347;BME280;68815;48.810;44.482;2024-01-30T16:33:29;101852;;;-2.2;86.7
79347;BME280;68815;48.810;44.482;2024-01-30T16:36:31;101853;;;-2.1;86.8
79347;BME280;68815;48.810;44.482;2024-01-30T16:39:33;101852;;;-2.2;86.6
79347;BME280;68815;48.810;44.482;2024-01-30T16:42:34;101852;;;-2.2;86.8
79347;BME280;68815;48.810;44.482;2024-01-30T16:45:36;101859;;;-2.3;87.2
79347;BME280;68815;48.810;44.482;2024-01-30T16:48:38;101863;;;-2.3;87
79347;BME280;68815;48.810;44.482;2024-01-30T16:51:41;101873;;;-2.3;87.5
79347;BME280;68815;48.810;44.482;2024-01-30T16:54:44;101872;;;-2.1;87.1